Messwerte North Adams

Temperatur

Temperatur
°C
1576245600 9.00 9.00 1
1576249200 10.00 10.00 3
1576252800 11.00 11.00 2
1576256400 12.00 12.00 3
1576260000 13.00 13.00 3
1576263600 14.00 14.00 3
1576267200 15.00 15.00 3
1576270800 16.00 16.00 3
1576274400 17.00 17.00 3
1576278000 18.00 18.00
1576281600 19.00 19.00 3
1576285200 20.00 20.00 4
1576288800 21.00 21.00 4
1576292400 22.00 22.00 4
1576296000 23.00 23.00
1576299600 0.00 0.00 6
1576303200 1.00 1.00 7
1576306800 2.00 2.00
1576310400 3.00 3.00 7
1576314000 4.00 4.00 8
1576317600 5.00 5.00 8
1576321200 6.00 6.00 8
1576324800 7.00 7.00 8
1576328400 8.00 8.00 8

Aktuellste Messwerte

Wettercharakter
Wetter: trüb und nass
Temperatur
8 °C
Feuchtigkeit
80 %
Wind
30 km/hWindrichtung: Südost
Böen
40 km/h
Luftdruck
1001 hPa
Messzeit: 14. Dezember 2019, 8.00Datenquelle: METAR

Weitere Messstationen in der Nähe

Messstation Temperatur Entfernung
Bennington 9 °C 23 km
Pittsfield 6 °C 32 km
Albany 6 °C 54 km
Schenectady 4 °C 67 km
Westfield 5 °C 69 km
Westfield 11 °C 70 km
Orange 7 °C 71 km

Wind

Windrichtung Böen Mittelwind
° km/h km/h
1576245600 9.00 8.00 - 9.00 100° 35 25
1576249200 10.00 9.00 - 10.00 110° 50 25
1576252800 11.00 10.00 - 11.00 80° 30 20
1576256400 12.00 11.00 - 12.00 60° 30 15
1576260000 13.00 12.00 - 13.00 80° 30 15
1576263600 14.00 13.00 - 14.00 60° 30 20
1576267200 15.00 14.00 - 15.00 70° 30 15
1576270800 16.00 15.00 - 16.00 90° 25 15
1576274400 17.00 16.00 - 17.00 100° 20
1576278000 18.00 17.00 - 18.00
1576281600 19.00 18.00 - 19.00 110° 15
1576285200 20.00 19.00 - 20.00 100° 20
1576288800 21.00 20.00 - 21.00 100° 15
1576292400 22.00 21.00 - 22.00 80° 15
1576296000 23.00 22.00 - 23.00
1576299600 0.00 23.00 - 0.00 80° 25 20
1576303200 1.00 0.00 - 1.00 100° 45 25
1576306800 2.00 1.00 - 2.00
1576310400 3.00 2.00 - 3.00 120° 55 30
1576314000 4.00 3.00 - 4.00 120° 25
1576317600 5.00 4.00 - 5.00 110° 25
1576321200 6.00 5.00 - 6.00 120° 20
1576324800 7.00 6.00 - 7.00 140° 25
1576328400 8.00 7.00 - 8.00 120° 40 30

Ihre Wetterstation

Fehlt Ihre Wetterstation auf unserem Portal?

Schreiben Sie an network@meteonews.ch

Klima

Wann ist es am wärmsten? Wann regnet es am wenigsten? Unsere Klimadaten geben Auskunft.